createdAt,value
2023-02-16T00:02:03.966Z,65.93
2023-02-16T00:04:32.195Z,69.17
2023-02-16T00:07:02.770Z,73.67
2023-02-16T00:09:38.917Z,66.57
2023-02-16T00:12:38.688Z,66.70
2023-02-16T00:15:20.135Z,73.03
2023-02-16T00:17:49.645Z,65.67
2023-02-16T00:20:23.848Z,69.57
2023-02-16T00:22:58.708Z,75.17
2023-02-16T00:25:29.007Z,60.43
2023-02-16T00:27:57.835Z,74.07
2023-02-16T00:30:36.103Z,59.10
2023-02-16T00:33:15.360Z,75.47
2023-02-16T00:35:47.214Z,67.23
2023-02-16T00:38:19.570Z,86.37
2023-02-16T00:40:55.677Z,96.83
2023-02-16T00:43:29.464Z,91.83
2023-02-16T00:46:00.730Z,90.50
2023-02-16T00:48:29.085Z,85.60
2023-02-16T00:50:56.516Z,91.87
2023-02-16T00:53:25.318Z,93.97
2023-02-16T00:55:54.334Z,78.03
2023-02-16T00:58:31.304Z,73.30
2023-02-16T01:01:12.110Z,75.70
2023-02-16T01:03:40.972Z,79.33
2023-02-16T01:06:31.199Z,80.63
2023-02-16T01:09:45.875Z,79.07
2023-02-16T01:12:25.763Z,88.33
2023-02-16T01:14:57.151Z,83.47
2023-02-16T01:17:26.640Z,91.17
2023-02-16T01:19:55.479Z,89.13
2023-02-16T01:22:24.999Z,97.10
2023-02-16T01:24:54.613Z,76.20
2023-02-16T01:27:21.648Z,89.30
2023-02-16T01:29:51.546Z,77.57
2023-02-16T01:32:22.410Z,84.20
2023-02-16T01:34:52.083Z,70.30
2023-02-16T01:37:21.795Z,90.73
2023-02-16T01:39:52.605Z,90.70
2023-02-16T01:42:35.066Z,83.70
2023-02-16T01:45:17.573Z,79.67
2023-02-16T01:47:57.217Z,78.67
2023-02-16T01:50:37.399Z,86.73
2023-02-16T01:53:19.975Z,86.10
2023-02-16T01:55:56.176Z,89.07
2023-02-16T01:58:57.171Z,79.83
2023-02-16T02:01:52.713Z,84.87
2023-02-16T02:04:54.388Z,76.00
2023-02-16T02:07:42.324Z,75.17
2023-02-16T02:10:50.288Z,77.23
2023-02-16T02:13:48.792Z,72.00
2023-02-16T02:16:30.071Z,76.23
2023-02-16T02:19:06.337Z,77.70
2023-02-16T02:22:32.992Z,74.33
2023-02-16T02:25:25.015Z,64.93
2023-02-16T02:28:02.473Z,65.67
2023-02-16T02:30:54.939Z,66.27
2023-02-16T02:34:15.097Z,63.50
2023-02-16T02:37:16.803Z,59.60
2023-02-16T02:40:13.081Z,74.10
2023-02-16T02:43:14.368Z,74.13
2023-02-16T02:46:01.856Z,72.17
2023-02-16T02:48:36.370Z,65.73
2023-02-16T02:51:30.921Z,71.57
2023-02-16T02:54:54.402Z,76.57
2023-02-16T02:58:09.896Z,84.53
2023-02-16T03:00:50.035Z,77.93
2023-02-16T03:03:31.798Z,70.80
2023-02-16T03:06:13.048Z,53.10
2023-02-16T03:08:44.330Z,49.23
2023-02-16T03:11:50.032Z,45.80
2023-02-16T03:14:52.458Z,38.23
2023-02-16T03:17:47.128Z,34.63
2023-02-16T03:20:35.915Z,37.23
2023-02-16T03:23:26.425Z,44.73
2023-02-16T03:26:15.190Z,39.87
2023-02-16T03:29:04.868Z,43.13
2023-02-16T03:31:41.438Z,42.50
2023-02-16T03:34:13.370Z,38.03
2023-02-16T03:36:52.892Z,37.03
2023-02-16T03:39:24.778Z,41.80
2023-02-16T03:41:56.568Z,38.37
2023-02-16T03:44:34.510Z,36.87
2023-02-16T03:47:04.974Z,39.20
2023-02-16T03:49:32.194Z,35.83
2023-02-16T03:51:59.482Z,36.80
2023-02-16T03:54:28.046Z,39.83
2023-02-16T03:56:56.667Z,30.67
2023-02-16T03:59:26.469Z,32.03
2023-02-16T04:02:03.630Z,36.30
2023-02-16T04:04:33.240Z,32.40
2023-02-16T04:07:03.800Z,33.20
2023-02-16T04:09:32.312Z,34.63
2023-02-16T04:12:19.656Z,34.53
2023-02-16T04:14:54.091Z,33.63
2023-02-16T04:17:24.590Z,29.77
2023-02-16T04:19:53.142Z,48.97
2023-02-16T04:22:23.853Z,50.20
2023-02-16T04:24:53.100Z,45.90
2023-02-16T04:27:20.200Z,37.90
2023-02-16T04:29:49.002Z,32.50
2023-02-16T04:32:16.172Z,29.97
2023-02-16T04:34:45.129Z,30.00
2023-02-16T04:37:12.278Z,30.87
2023-02-16T04:39:41.152Z,25.90
2023-02-16T04:42:09.446Z,30.00
2023-02-16T04:44:38.489Z,27.43
2023-02-16T04:47:10.471Z,29.10
2023-02-16T04:49:37.720Z,26.07
2023-02-16T04:52:07.391Z,20.90
2023-02-16T04:54:35.860Z,30.10
2023-02-16T04:57:12.049Z,32.30
2023-02-16T04:59:39.417Z,25.53
2023-02-16T05:02:08.363Z,28.60
2023-02-16T05:04:37.602Z,25.47
2023-02-16T05:07:06.491Z,24.17
2023-02-16T05:09:38.570Z,20.17
2023-02-16T05:12:26.426Z,20.00
2023-02-16T05:14:56.938Z,21.43
2023-02-16T05:17:31.590Z,26.07
2023-02-16T05:20:03.213Z,22.97
2023-02-16T05:22:37.690Z,23.83
2023-02-16T05:25:09.476Z,25.60
2023-02-16T05:27:37.951Z,32.43
2023-02-16T05:30:09.777Z,30.53
2023-02-16T05:32:40.070Z,30.53
2023-02-16T05:35:07.433Z,34.83
2023-02-16T05:37:34.962Z,34.20
2023-02-16T05:40:04.849Z,25.53
2023-02-16T05:42:32.973Z,21.67
2023-02-16T05:45:03.952Z,28.20
2023-02-16T05:47:41.051Z,25.10
2023-02-16T05:50:10.951Z,30.33
2023-02-16T05:52:47.578Z,37.00
2023-02-16T05:55:16.614Z,42.07
2023-02-16T05:57:46.188Z,38.43
2023-02-16T06:00:15.487Z,39.83
2023-02-16T06:02:45.537Z,45.60
2023-02-16T06:05:13.792Z,64.67
2023-02-16T06:07:50.962Z,59.73
2023-02-16T06:10:20.239Z,67.27
2023-02-16T06:12:48.698Z,50.90
2023-02-16T06:15:18.358Z,54.57
2023-02-16T06:17:47.448Z,60.47
2023-02-16T06:20:15.274Z,60.93
2023-02-16T06:22:44.504Z,63.70
2023-02-16T06:25:14.579Z,65.23
2023-02-16T06:27:43.729Z,61.93
2023-02-16T06:30:23.077Z,60.97
2023-02-16T06:33:00.873Z,66.40
2023-02-16T06:35:30.561Z,63.83
2023-02-16T06:38:07.177Z,62.63
2023-02-16T06:40:34.157Z,62.20
2023-02-16T06:43:04.202Z,62.73
2023-02-16T06:45:33.198Z,59.17
2023-02-16T06:48:09.917Z,56.17
2023-02-16T06:50:38.760Z,54.47
2023-02-16T06:53:07.897Z,52.83
2023-02-16T06:55:37.801Z,48.43
2023-02-16T06:58:10.610Z,51.30
2023-02-16T07:00:46.697Z,59.83
2023-02-16T07:03:15.713Z,57.90
2023-02-16T07:05:46.048Z,53.57
2023-02-16T07:08:18.166Z,50.67
2023-02-16T07:10:51.223Z,54.00
2023-02-16T07:13:20.578Z,50.63
2023-02-16T07:15:50.687Z,46.03
2023-02-16T07:18:19.422Z,47.67
2023-02-16T07:20:49.157Z,48.70
2023-02-16T07:23:18.235Z,41.57
2023-02-16T07:25:46.574Z,42.93
2023-02-16T07:28:17.055Z,46.47
2023-02-16T07:30:46.236Z,42.13
2023-02-16T07:33:19.262Z,40.33
2023-02-16T07:35:48.335Z,37.33
2023-02-16T07:38:17.019Z,39.00
2023-02-16T07:40:53.052Z,38.83
2023-02-16T07:43:21.993Z,38.63
2023-02-16T07:45:52.064Z,41.60
2023-02-16T07:48:28.242Z,41.07
2023-02-16T07:51:05.737Z,54.90
2023-02-16T07:53:37.198Z,52.03
2023-02-16T07:56:06.304Z,49.03
2023-02-16T07:58:37.131Z,49.77
2023-02-16T08:01:15.997Z,50.43
2023-02-16T08:03:44.555Z,64.13
2023-02-16T08:06:14.649Z,54.87
2023-02-16T08:08:45.411Z,44.27
2023-02-16T08:11:22.259Z,46.67
2023-02-16T08:14:01.559Z,38.27
2023-02-16T08:16:29.631Z,38.53
2023-02-16T08:19:15.116Z,35.10
2023-02-16T08:21:50.651Z,41.13
2023-02-16T08:24:20.012Z,36.33
2023-02-16T08:26:58.996Z,40.00
2023-02-16T08:29:29.245Z,40.43
2023-02-16T08:31:59.519Z,34.80
2023-02-16T08:34:30.099Z,37.20
2023-02-16T08:36:58.787Z,25.00
2023-02-16T08:39:31.094Z,26.60
2023-02-16T08:42:02.238Z,31.43
2023-02-16T08:44:32.037Z,32.47
2023-02-16T08:47:01.634Z,34.13
2023-02-16T08:49:29.265Z,32.70
2023-02-16T08:52:01.822Z,30.33
2023-02-16T08:54:33.579Z,28.03
2023-02-16T08:57:12.334Z,32.70
2023-02-16T08:59:40.052Z,31.43
2023-02-16T09:02:17.220Z,29.63
2023-02-16T09:04:53.491Z,28.63
2023-02-16T09:07:22.996Z,26.50
2023-02-16T09:09:51.111Z,31.17
2023-02-16T09:12:20.171Z,26.43
2023-02-16T09:14:49.367Z,29.30
2023-02-16T09:17:18.276Z,27.20
2023-02-16T09:19:48.901Z,27.17
2023-02-16T09:22:18.956Z,24.17
2023-02-16T09:24:47.239Z,23.87
2023-02-16T09:27:18.533Z,26.97
2023-02-16T09:29:55.768Z,27.40
2023-02-16T09:32:23.828Z,29.73
2023-02-16T09:34:54.162Z,27.13
2023-02-16T09:37:31.409Z,26.53
2023-02-16T09:40:01.072Z,30.57
2023-02-16T09:43:14.630Z,25.05
2023-02-16T09:45:53.975Z,28.57
2023-02-16T09:48:45.751Z,27.93
2023-02-16T09:51:34.697Z,26.57
2023-02-16T09:54:49.975Z,30.67
2023-02-16T09:57:42.249Z,27.00
2023-02-16T10:00:39.906Z,27.27
2023-02-16T10:03:46.274Z,28.50
2023-02-16T10:06:47.720Z,29.83
2023-02-16T10:09:20.970Z,27.33
2023-02-16T10:12:09.070Z,30.63
2023-02-16T10:14:58.383Z,25.37
2023-02-16T10:17:46.926Z,27.33
2023-02-16T10:20:34.827Z,25.87
2023-02-16T10:23:21.450Z,29.30
2023-02-16T10:26:06.033Z,28.53
2023-02-16T10:28:39.606Z,21.77
2023-02-16T10:31:41.162Z,24.50
2023-02-16T10:34:37.109Z,22.80
2023-02-16T10:37:22.651Z,23.40
2023-02-16T10:40:38.072Z,26.90
2023-02-16T10:43:29.977Z,18.67
2023-02-16T10:46:06.299Z,22.87
2023-02-16T10:48:34.123Z,20.50
2023-02-16T10:51:20.089Z,25.13
2023-02-16T10:54:02.225Z,23.73
2023-02-16T10:57:05.321Z,19.97
2023-02-16T10:59:46.140Z,23.17
2023-02-16T11:02:27.514Z,23.97
2023-02-16T11:04:56.893Z,22.73
2023-02-16T11:07:31.300Z,17.83
2023-02-16T11:10:01.862Z,17.60
2023-02-16T11:12:44.526Z,25.33
2023-02-16T11:15:18.874Z,18.67
2023-02-16T11:18:10.878Z,22.07
2023-02-16T11:20:48.021Z,15.93
2023-02-16T11:23:42.402Z,20.30
2023-02-16T11:26:29.299Z,16.10
2023-02-16T11:29:26.020Z,22.47
2023-02-16T11:31:53.679Z,19.63
2023-02-16T11:34:52.664Z,17.67
2023-02-16T11:37:33.471Z,13.43
2023-02-16T11:40:11.363Z,17.67
2023-02-16T11:42:50.237Z,15.73
2023-02-16T11:45:35.702Z,14.63
2023-02-16T11:48:25.630Z,19.07
2023-02-16T11:51:07.842Z,20.43
2023-02-16T11:53:45.267Z,21.63
2023-02-16T11:56:28.571Z,19.17
2023-02-16T11:59:22.372Z,16.67
2023-02-16T12:02:27.159Z,17.33
2023-02-16T12:05:41.689Z,16.33
2023-02-16T12:08:47.566Z,16.53
2023-02-16T12:11:43.764Z,18.40
2023-02-16T12:14:22.479Z,17.23
2023-02-16T12:17:14.509Z,15.30
2023-02-16T12:19:50.005Z,16.43
2023-02-16T12:22:50.630Z,16.30
2023-02-16T12:26:10.379Z,16.40
2023-02-16T12:29:19.741Z,15.17
2023-02-16T12:32:18.395Z,18.27
2023-02-16T12:34:52.516Z,13.57
2023-02-16T12:37:50.774Z,14.77
2023-02-16T12:40:32.389Z,14.60
2023-02-16T12:43:33.411Z,14.60
2023-02-16T12:46:26.294Z,14.53
2023-02-16T12:49:13.793Z,16.67
2023-02-16T12:52:18.578Z,14.87
2023-02-16T12:55:13.525Z,14.67
2023-02-16T12:57:55.375Z,12.33
2023-02-16T13:00:53.627Z,11.87
2023-02-16T13:04:04.620Z,13.87
2023-02-16T13:07:23.243Z,12.90
2023-02-16T13:10:29.522Z,10.70
2023-02-16T13:13:14.310Z,12.07
2023-02-16T13:15:51.057Z,12.70
2023-02-16T13:18:42.438Z,16.13
2023-02-16T13:21:29.008Z,12.80
2023-02-16T13:24:26.524Z,15.07
2023-02-16T13:27:22.838Z,14.50
2023-02-16T13:30:31.023Z,12.53
2023-02-16T13:33:47.930Z,13.27
2023-02-16T13:36:45.306Z,13.57
2023-02-16T13:39:27.912Z,12.40
2023-02-16T13:42:28.867Z,10.30
2023-02-16T13:45:20.344Z,11.63
2023-02-16T13:47:54.573Z,11.13
2023-02-16T13:50:31.947Z,11.53
2023-02-16T13:53:28.068Z,11.00
2023-02-16T13:56:28.932Z,12.33
2023-02-16T13:59:21.543Z,8.83
2023-02-16T14:01:58.013Z,10.83
2023-02-16T14:04:34.071Z,10.23
2023-02-16T14:07:16.088Z,8.07
2023-02-16T14:09:52.992Z,11.57
2023-02-16T14:12:37.013Z,10.40
2023-02-16T14:15:20.087Z,9.30
2023-02-16T14:17:48.393Z,10.77
2023-02-16T14:20:21.682Z,8.80
2023-02-16T14:23:01.094Z,7.43
2023-02-16T14:25:33.779Z,9.40
2023-02-16T14:28:07.618Z,9.93
2023-02-16T14:31:11.140Z,7.90
2023-02-16T14:34:13.108Z,9.87
2023-02-16T14:37:17.207Z,7.93
2023-02-16T14:40:07.483Z,7.77
2023-02-16T14:42:37.793Z,9.20
2023-02-16T14:45:39.557Z,6.67
2023-02-16T14:48:45.256Z,6.20
2023-02-16T14:51:36.847Z,6.80
2023-02-16T14:54:41.762Z,7.17
2023-02-16T14:57:56.484Z,7.53
2023-02-16T15:00:49.056Z,7.33
2023-02-16T15:03:30.101Z,9.97
2023-02-16T15:06:07.112Z,7.47
2023-02-16T15:08:49.419Z,5.50
2023-02-16T15:12:20.612Z,7.63
2023-02-16T15:15:01.393Z,7.07
2023-02-16T15:17:53.616Z,6.37
2023-02-16T15:20:30.635Z,7.27
2023-02-16T15:23:01.626Z,5.60
2023-02-16T15:26:08.406Z,6.90
2023-02-16T15:28:41.311Z,5.63
2023-02-16T15:31:24.186Z,7.60
2023-02-16T15:34:13.540Z,9.47
2023-02-16T15:36:47.751Z,8.67
2023-02-16T15:39:37.897Z,8.87
2023-02-16T15:42:25.696Z,10.23
2023-02-16T15:44:57.196Z,9.03
2023-02-16T15:47:28.978Z,10.73
2023-02-16T15:49:56.240Z,10.37
2023-02-16T15:52:46.115Z,6.27
2023-02-16T15:55:23.678Z,9.13
2023-02-16T15:58:02.648Z,10.00
2023-02-16T16:00:29.638Z,7.70
2023-02-16T16:03:04.036Z,11.87
2023-02-16T16:05:43.172Z,8.13
2023-02-16T16:08:29.251Z,8.40
2023-02-16T16:11:00.697Z,7.57
2023-02-16T16:13:34.960Z,9.90
2023-02-16T16:16:05.018Z,10.73
2023-02-16T16:18:55.179Z,11.33
2023-02-16T16:21:50.517Z,7.60
2023-02-16T16:24:50.423Z,8.53
2023-02-16T16:27:36.895Z,12.67
2023-02-16T16:30:36.275Z,10.57
2023-02-16T16:33:13.515Z,10.37
2023-02-16T16:35:49.197Z,10.10
2023-02-16T16:38:38.819Z,14.20
2023-02-16T16:41:28.052Z,13.03
2023-02-16T16:44:05.298Z,13.67
2023-02-16T16:46:33.786Z,17.37
2023-02-16T16:49:04.889Z,20.50
2023-02-16T16:51:31.968Z,22.30
2023-02-16T16:54:14.818Z,22.37
2023-02-16T16:56:45.537Z,17.60
2023-02-16T16:59:14.298Z,11.40
2023-02-16T17:01:46.137Z,10.57
2023-02-16T17:04:15.637Z,9.10
2023-02-16T17:06:46.158Z,7.23
2023-02-16T17:09:17.277Z,8.63
2023-02-16T17:11:47.958Z,9.80
2023-02-16T17:14:20.388Z,11.00
2023-02-16T17:16:51.041Z,11.23
2023-02-16T17:19:23.819Z,9.27
2023-02-16T17:21:50.854Z,9.00
2023-02-16T17:24:18.449Z,10.10
2023-02-16T17:26:45.890Z,13.57
2023-02-16T17:29:14.196Z,14.13
2023-02-16T17:31:42.554Z,11.27
2023-02-16T17:34:14.630Z,12.23
2023-02-16T17:36:43.874Z,10.30
2023-02-16T17:39:13.951Z,10.80
2023-02-16T17:41:42.801Z,12.20
2023-02-16T17:44:13.325Z,12.20
2023-02-16T17:46:42.764Z,13.90
2023-02-16T17:49:12.505Z,10.77
2023-02-16T17:51:42.987Z,14.37
2023-02-16T17:54:10.684Z,13.17
2023-02-16T17:56:40.455Z,11.50
2023-02-16T17:59:15.307Z,10.67
2023-02-16T18:01:50.926Z,15.10
2023-02-16T18:04:20.796Z,12.50
2023-02-16T18:06:49.829Z,15.97
2023-02-16T18:09:26.309Z,24.90
2023-02-16T18:11:56.045Z,19.73
2023-02-16T18:14:23.370Z,19.23
2023-02-16T18:16:54.915Z,15.53
2023-02-16T18:19:23.196Z,17.63
2023-02-16T18:21:59.279Z,17.67
2023-02-16T18:24:29.825Z,13.27
2023-02-16T18:26:58.270Z,16.60
2023-02-16T18:29:26.812Z,13.20
2023-02-16T18:31:56.079Z,16.90
2023-02-16T18:34:31.916Z,10.30
2023-02-16T18:37:01.105Z,14.33
2023-02-16T18:39:31.797Z,13.50
2023-02-16T18:42:01.098Z,16.00
2023-02-16T18:44:31.335Z,12.47
2023-02-16T18:47:02.530Z,15.53
2023-02-16T18:49:29.844Z,10.93
2023-02-16T18:52:06.899Z,15.80
2023-02-16T18:54:36.199Z,12.37
2023-02-16T18:57:13.458Z,12.50
2023-02-16T18:59:51.051Z,15.03
2023-02-16T19:02:18.409Z,13.10
2023-02-16T19:05:24.411Z,14.23
2023-02-16T19:07:53.474Z,12.90
2023-02-16T19:10:20.763Z,11.37
2023-02-16T19:12:52.103Z,16.23
2023-02-16T19:15:19.332Z,16.17
2023-02-16T19:17:48.281Z,12.70
2023-02-16T19:20:24.776Z,15.93
2023-02-16T19:23:01.921Z,11.90
2023-02-16T19:25:39.380Z,13.70
2023-02-16T19:28:08.149Z,12.90
2023-02-16T19:30:37.145Z,21.87
2023-02-16T19:33:06.341Z,16.37
2023-02-16T19:35:35.262Z,12.73
2023-02-16T19:38:02.557Z,14.03
2023-02-16T19:40:32.162Z,14.07
2023-02-16T19:43:02.688Z,12.03
2023-02-16T19:45:38.794Z,10.03
2023-02-16T19:48:06.108Z,11.43
2023-02-16T19:50:35.050Z,10.90
2023-02-16T19:53:04.810Z,10.47
2023-02-16T19:55:34.690Z,12.70
2023-02-16T19:58:05.129Z,10.13
2023-02-16T20:00:32.846Z,11.47
2023-02-16T20:03:03.341Z,11.33
2023-02-16T20:05:33.067Z,14.37
2023-02-16T20:08:02.875Z,11.90
2023-02-16T20:10:32.971Z,14.33
2023-02-16T20:13:09.952Z,15.30
2023-02-16T20:15:37.541Z,14.33
2023-02-16T20:18:08.255Z,13.00
2023-02-16T20:20:43.140Z,14.57
2023-02-16T20:23:14.350Z,12.93
2023-02-16T20:25:51.510Z,10.60
2023-02-16T20:28:30.733Z,11.80
2023-02-16T20:31:02.030Z,11.43
2023-02-16T20:33:32.677Z,11.37
2023-02-16T20:35:59.937Z,11.40
2023-02-16T20:38:27.495Z,11.33
2023-02-16T20:40:55.682Z,13.60
2023-02-16T20:43:26.597Z,12.13
2023-02-16T20:45:53.814Z,17.03
2023-02-16T20:48:30.920Z,14.13
2023-02-16T20:51:04.231Z,16.70
2023-02-16T20:53:38.795Z,13.37
2023-02-16T20:56:21.164Z,12.73
2023-02-16T20:59:00.349Z,11.60
2023-02-16T21:01:33.828Z,8.60
2023-02-16T21:04:02.169Z,10.53
2023-02-16T21:06:32.827Z,11.60
2023-02-16T21:09:01.232Z,12.23
2023-02-16T21:11:28.372Z,10.40
2023-02-16T21:13:59.329Z,11.27
2023-02-16T21:16:27.677Z,9.50
2023-02-16T21:18:56.194Z,12.07
2023-02-16T21:21:33.190Z,10.37
2023-02-16T21:24:01.692Z,15.30
2023-02-16T21:26:32.047Z,15.67
2023-02-16T21:29:01.642Z,10.83
2023-02-16T21:31:30.685Z,11.20
2023-02-16T21:34:01.309Z,12.13
2023-02-16T21:36:32.366Z,13.43
2023-02-16T21:39:03.411Z,7.67
2023-02-16T21:41:35.201Z,11.83
2023-02-16T21:44:12.250Z,9.77
2023-02-16T21:46:42.978Z,12.03
2023-02-16T21:49:23.402Z,8.40
2023-02-16T21:51:50.755Z,11.03
2023-02-16T21:54:48.740Z,16.53
2023-02-16T21:57:19.139Z,12.70
2023-02-16T21:59:49.561Z,12.03
2023-02-16T22:02:21.827Z,11.70
2023-02-16T22:04:52.764Z,11.57
2023-02-16T22:07:23.149Z,11.27
2023-02-16T22:09:51.350Z,10.80
2023-02-16T22:12:19.774Z,14.23
2023-02-16T22:14:46.860Z,13.43
2023-02-16T22:17:15.382Z,13.17
2023-02-16T22:20:04.361Z,12.67
2023-02-16T22:22:33.753Z,15.67
2023-02-16T22:25:02.334Z,12.20
2023-02-16T22:27:31.046Z,12.27
2023-02-16T22:30:12.281Z,14.73
2023-02-16T22:32:41.203Z,11.13
2023-02-16T22:35:10.335Z,13.10
2023-02-16T22:37:38.654Z,11.80
2023-02-16T22:40:07.696Z,11.87
2023-02-16T22:42:37.876Z,10.83
2023-02-16T22:45:05.622Z,11.83
2023-02-16T22:47:36.207Z,9.40
2023-02-16T22:50:03.756Z,11.37
2023-02-16T22:52:34.357Z,10.30
2023-02-16T22:55:03.087Z,9.90
2023-02-16T22:57:35.328Z,9.73
2023-02-16T23:00:11.542Z,9.63
2023-02-16T23:02:39.975Z,9.73
2023-02-16T23:05:10.812Z,11.43
2023-02-16T23:07:37.934Z,11.13
2023-02-16T23:10:08.042Z,9.87
2023-02-16T23:12:36.524Z,12.17
2023-02-16T23:15:08.456Z,11.20
2023-02-16T23:17:39.511Z,12.37
2023-02-16T23:20:10.852Z,11.50
2023-02-16T23:22:40.122Z,9.33
2023-02-16T23:25:28.591Z,8.33
2023-02-16T23:28:05.436Z,13.70
2023-02-16T23:30:52.975Z,10.17
2023-02-16T23:33:20.478Z,12.87
2023-02-16T23:35:51.139Z,14.77
2023-02-16T23:38:22.435Z,11.07
2023-02-16T23:41:01.359Z,13.23
2023-02-16T23:43:35.018Z,9.63
2023-02-16T23:46:06.218Z,7.70
2023-02-16T23:48:42.972Z,11.13
2023-02-16T23:51:12.255Z,8.27
2023-02-16T23:53:40.900Z,10.63
2023-02-16T23:56:22.891Z,8.80
2023-02-16T23:58:51.894Z,11.53
